London Corbin Airport Magee Field London US
ICAO: KLOZ
IATA: LOZ
Category: Medium
Scheduled Services: No

Elevation: 1212 ft
TransAlt. 18000 ft.

Airport Communications:
ASOS:119.075
INDIANAPOLIS CNTR:121.325
LOUISVILLE RDO:122.2
CTAF/UNICOM:123

KLOZ Zoom In..

If you have problems with the map follow the link
https://www.worldairports.se/pages/airport.php?
ICAO=KLOZ

Runways:

(A) RW 06 length 5751 ft width 150 ft
ILS 110.90 / hdg 57

(B) RW 24 length 5751 ft width 150 ft
---- / hdg 237

Location; KLOZ
Day. 08 / Time. 05.53 Zulu
* Altimeter: 30.26
* Temperature: -01° c. -30.2°f.
* Wind from: 000° Speed 00 kn.
Dewpoint: -01° c.
Visibility: 4 Statute Miles.
Clouds: Clear (automated report).
Conditions: Mist.

KLOZ 080553Z AUTO 00000KT 4SM BR CLR M01/M01 A3026 RMK AO2 SLP253 T10061011 10056 21006 56009


Wind - Calm.

 
 
jpsmedia worldairports.se 2019   terms of use